createdAt,value
2023-05-08T00:01:47.534Z,3.50
2023-05-08T00:04:15.273Z,3.50
2023-05-08T00:06:42.864Z,3.50
2023-05-08T00:09:10.361Z,3.40
2023-05-08T00:11:37.802Z,3.40
2023-05-08T00:14:06.084Z,3.30
2023-05-08T00:16:33.781Z,3.40
2023-05-08T00:19:01.347Z,3.40
2023-05-08T00:21:28.867Z,3.30
2023-05-08T00:23:56.424Z,3.30
2023-05-08T00:26:23.936Z,3.20
2023-05-08T00:28:51.424Z,3.20
2023-05-08T00:31:18.974Z,3.20
2023-05-08T00:33:47.084Z,3.10
2023-05-08T00:36:15.980Z,3.10
2023-05-08T00:38:43.536Z,3.10
2023-05-08T00:41:11.131Z,3.10
2023-05-08T00:43:40.359Z,3.10
2023-05-08T00:46:10.108Z,3.10
2023-05-08T00:48:39.799Z,3.10
2023-05-08T00:51:09.820Z,3.10
2023-05-08T00:53:41.524Z,3.10
2023-05-08T00:56:14.862Z,3.00
2023-05-08T00:58:44.027Z,3.00
2023-05-08T01:01:12.359Z,3.10
2023-05-08T01:03:40.412Z,3.00
2023-05-08T01:06:08.400Z,3.00
2023-05-08T01:08:36.320Z,3.00
2023-05-08T01:11:09.744Z,3.00
2023-05-08T01:14:10.952Z,2.90
2023-05-08T01:17:11.403Z,2.90
2023-05-08T01:20:12.613Z,2.90
2023-05-08T01:23:29.402Z,2.90
2023-05-08T01:26:28.192Z,2.90
2023-05-08T01:29:22.768Z,2.90
2023-05-08T01:32:30.644Z,2.80
2023-05-08T01:35:24.355Z,2.80
2023-05-08T01:38:11.360Z,2.70
2023-05-08T01:40:56.653Z,2.80
2023-05-08T01:43:52.834Z,2.80
2023-05-08T01:46:28.752Z,2.80
2023-05-08T01:49:27.911Z,2.70
2023-05-08T01:52:07.786Z,2.70
2023-05-08T01:54:44.978Z,2.70
2023-05-08T01:57:14.338Z,2.70
2023-05-08T01:59:43.492Z,2.70
2023-05-08T02:02:12.743Z,2.70
2023-05-08T02:04:42.218Z,2.60
2023-05-08T02:07:09.731Z,2.70
2023-05-08T02:09:38.768Z,2.60
2023-05-08T02:12:08.314Z,2.60
2023-05-08T02:14:38.054Z,2.50
2023-05-08T02:17:06.850Z,2.50
2023-05-08T02:19:35.495Z,2.50
2023-05-08T02:22:04.436Z,2.50
2023-05-08T02:24:34.426Z,2.50
2023-05-08T02:27:02.580Z,2.50
2023-05-08T02:29:30.896Z,2.50
2023-05-08T02:32:01.530Z,2.40
2023-05-08T02:34:31.015Z,2.40
2023-05-08T02:36:59.927Z,2.40
2023-05-08T02:39:31.219Z,2.40
2023-05-08T02:41:59.088Z,2.30
2023-05-08T02:44:26.940Z,2.20
2023-05-08T02:47:00.892Z,2.20
2023-05-08T02:49:32.672Z,2.20
2023-05-08T02:52:25.811Z,2.30
2023-05-08T02:55:16.370Z,2.20
2023-05-08T02:58:18.154Z,2.10
2023-05-08T03:01:01.919Z,2.00
2023-05-08T03:03:45.028Z,1.90
2023-05-08T03:06:22.092Z,1.90
2023-05-08T03:08:52.179Z,2.00
2023-05-08T03:11:26.139Z,2.00
2023-05-08T03:13:59.320Z,2.00
2023-05-08T03:16:32.536Z,1.90
2023-05-08T03:19:12.166Z,1.90
2023-05-08T03:21:41.485Z,2.00
2023-05-08T03:24:10.150Z,2.00
2023-05-08T03:26:38.022Z,2.00
2023-05-08T03:29:06.938Z,1.90
2023-05-08T03:31:35.715Z,1.90
2023-05-08T03:34:05.027Z,2.10
2023-05-08T03:36:32.942Z,2.20
2023-05-08T03:39:00.874Z,2.20
2023-05-08T03:41:28.731Z,2.20
2023-05-08T03:43:57.561Z,2.10
2023-05-08T03:46:26.286Z,2.20
2023-05-08T03:48:55.377Z,2.30
2023-05-08T03:51:23.207Z,2.30
2023-05-08T03:53:50.698Z,2.30
2023-05-08T03:56:18.155Z,2.40
2023-05-08T03:59:02.085Z,2.40
2023-05-08T04:01:42.040Z,2.50
2023-05-08T04:04:18.168Z,2.50
2023-05-08T04:06:54.663Z,2.60
2023-05-08T04:09:36.505Z,2.70
2023-05-08T04:12:40.444Z,2.70
2023-05-08T04:15:19.027Z,2.80
2023-05-08T04:18:00.655Z,2.80
2023-05-08T04:20:30.929Z,2.90
2023-05-08T04:22:59.588Z,2.90
2023-05-08T04:25:28.932Z,2.90
2023-05-08T04:27:57.817Z,3.00
2023-05-08T04:30:26.241Z,3.00
2023-05-08T04:32:54.591Z,3.10
2023-05-08T04:35:22.293Z,3.10
2023-05-08T04:37:49.764Z,3.20
2023-05-08T04:40:17.300Z,3.20
2023-05-08T04:42:47.505Z,3.20
2023-05-08T04:45:15.992Z,3.30
2023-05-08T04:47:43.620Z,3.40
2023-05-08T04:50:11.759Z,3.50
2023-05-08T04:52:39.251Z,3.60
2023-05-08T04:55:07.754Z,3.60
2023-05-08T04:57:35.222Z,3.60
2023-05-08T05:00:02.989Z,3.70
2023-05-08T05:02:30.486Z,3.70
2023-05-08T05:05:01.570Z,3.90
2023-05-08T05:07:29.121Z,3.90
2023-05-08T05:09:56.669Z,4.00
2023-05-08T05:12:24.159Z,4.10
2023-05-08T05:14:51.727Z,4.10
2023-05-08T05:17:19.196Z,4.20
2023-05-08T05:19:47.290Z,4.20
2023-05-08T05:22:14.842Z,4.20
2023-05-08T05:24:42.385Z,4.20
2023-05-08T05:27:09.896Z,4.30
2023-05-08T05:29:37.455Z,4.40
2023-05-08T05:32:07.338Z,4.40
2023-05-08T05:34:35.070Z,4.40
2023-05-08T05:37:02.664Z,4.50
2023-05-08T05:39:30.140Z,4.70
2023-05-08T05:41:57.680Z,4.80
2023-05-08T05:44:25.263Z,4.80
2023-05-08T05:46:54.017Z,5.00
2023-05-08T05:49:27.182Z,5.10
2023-05-08T05:51:54.704Z,5.10
2023-05-08T05:54:22.230Z,5.20
2023-05-08T05:56:49.801Z,5.30
2023-05-08T05:59:17.589Z,5.40
2023-05-08T06:01:45.180Z,5.50
2023-05-08T06:04:12.776Z,5.50
2023-05-08T06:06:40.314Z,5.60
2023-05-08T06:09:07.810Z,5.70
2023-05-08T06:11:35.317Z,5.80
2023-05-08T06:14:02.874Z,5.90
2023-05-08T06:16:30.888Z,6.10
2023-05-08T06:18:58.358Z,6.20
2023-05-08T06:21:25.893Z,6.20
2023-05-08T06:23:53.332Z,6.30
2023-05-08T06:26:23.336Z,6.40
2023-05-08T06:28:50.999Z,6.50
2023-05-08T06:31:19.169Z,6.60
2023-05-08T06:33:46.727Z,6.60
2023-05-08T06:36:14.203Z,6.80
2023-05-08T06:38:41.705Z,6.90
2023-05-08T06:41:09.861Z,7.00
2023-05-08T06:43:37.316Z,7.10
2023-05-08T06:46:07.315Z,7.10
2023-05-08T06:48:34.844Z,7.20
2023-05-08T06:51:02.855Z,7.20
2023-05-08T06:53:31.124Z,7.20
2023-05-08T06:55:59.018Z,7.30
2023-05-08T06:58:26.665Z,7.40
2023-05-08T07:00:54.165Z,7.40
2023-05-08T07:03:21.770Z,7.50
2023-05-08T07:05:49.326Z,7.50
2023-05-08T07:08:16.889Z,7.50
2023-05-08T07:10:44.373Z,7.60
2023-05-08T07:13:11.981Z,7.60
2023-05-08T07:15:39.527Z,7.70
2023-05-08T07:18:07.112Z,7.70
2023-05-08T07:20:35.006Z,7.80
2023-05-08T07:23:02.852Z,7.90
2023-05-08T07:25:30.316Z,8.00
2023-05-08T07:27:59.218Z,8.00
2023-05-08T07:30:28.699Z,8.10
2023-05-08T07:32:56.219Z,8.30
2023-05-08T07:35:23.891Z,8.60
2023-05-08T07:37:51.402Z,8.60
2023-05-08T07:40:19.068Z,8.70
2023-05-08T07:42:46.690Z,8.80
2023-05-08T07:45:14.700Z,8.90
2023-05-08T07:48:00.416Z,9.00
2023-05-08T07:50:28.078Z,9.00
2023-05-08T07:52:55.688Z,9.20
2023-05-08T07:55:23.158Z,9.50
2023-05-08T07:57:50.633Z,9.60
2023-05-08T08:00:18.528Z,9.80
2023-05-08T08:02:46.387Z,9.90
2023-05-08T08:05:14.183Z,10.00
2023-05-08T08:07:41.822Z,9.80
2023-05-08T08:10:09.746Z,9.60
2023-05-08T08:12:37.454Z,9.90
2023-05-08T08:15:05.833Z,10.10
2023-05-08T08:17:33.384Z,10.20
2023-05-08T08:20:01.046Z,10.30
2023-05-08T08:22:28.613Z,10.40
2023-05-08T08:24:56.824Z,10.50
2023-05-08T08:27:24.709Z,10.50
2023-05-08T08:29:58.528Z,10.70
2023-05-08T08:32:29.106Z,10.70
2023-05-08T08:34:56.764Z,10.70
2023-05-08T08:37:25.347Z,10.70
2023-05-08T08:39:53.366Z,10.80
2023-05-08T08:42:20.911Z,10.80
2023-05-08T08:44:48.456Z,10.90
2023-05-08T08:47:18.229Z,10.80
2023-05-08T08:49:49.853Z,11.00
2023-05-08T08:52:27.312Z,11.20
2023-05-08T08:54:57.485Z,11.30
2023-05-08T08:57:28.306Z,11.20
2023-05-08T08:59:57.026Z,11.00
2023-05-08T09:02:26.460Z,11.00
2023-05-08T09:04:54.220Z,11.00
2023-05-08T09:07:22.355Z,11.00
2023-05-08T09:09:50.849Z,11.10
2023-05-08T09:12:18.194Z,11.30
2023-05-08T09:14:45.544Z,11.30
2023-05-08T09:17:12.844Z,11.30
2023-05-08T09:19:40.843Z,11.40
2023-05-08T09:22:09.467Z,11.40
2023-05-08T09:25:00.310Z,11.30
2023-05-08T09:27:30.442Z,11.70
2023-05-08T09:30:05.090Z,11.50
2023-05-08T09:32:35.053Z,11.40
2023-05-08T09:35:03.112Z,11.70
2023-05-08T09:37:30.654Z,11.80
2023-05-08T09:40:27.200Z,11.80
2023-05-08T09:42:54.526Z,11.90
2023-05-08T09:45:32.492Z,11.80
2023-05-08T09:48:00.130Z,11.80
2023-05-08T09:50:27.942Z,11.90
2023-05-08T09:52:55.729Z,11.80
2023-05-08T09:55:23.076Z,11.70
2023-05-08T09:58:00.283Z,11.90
2023-05-08T10:00:30.174Z,11.70
2023-05-08T10:03:00.439Z,11.40
2023-05-08T10:05:36.666Z,11.50
2023-05-08T10:08:26.716Z,12.00
2023-05-08T10:10:54.062Z,12.30
2023-05-08T10:13:21.471Z,12.40
2023-05-08T10:15:52.796Z,12.40
2023-05-08T10:18:24.201Z,12.40
2023-05-08T10:20:54.374Z,12.30
2023-05-08T10:23:23.051Z,12.50
2023-05-08T10:26:02.270Z,12.50
2023-05-08T10:28:59.816Z,12.70
2023-05-08T10:31:29.462Z,12.50
2023-05-08T10:34:02.060Z,12.30
2023-05-08T10:36:31.850Z,12.50
2023-05-08T10:38:59.660Z,12.60
2023-05-08T10:41:28.070Z,12.80
2023-05-08T10:43:56.277Z,13.10
2023-05-08T10:46:54.411Z,12.90
2023-05-08T10:49:48.714Z,13.00
2023-05-08T10:52:34.453Z,13.20
2023-05-08T10:55:08.532Z,13.50
2023-05-08T10:57:35.965Z,13.90
2023-05-08T11:00:04.250Z,13.90
2023-05-08T11:02:36.912Z,14.10
2023-05-08T11:05:20.613Z,14.40
2023-05-08T11:07:59.597Z,14.80
2023-05-08T11:10:37.156Z,15.20
2023-05-08T11:13:05.627Z,15.10
2023-05-08T11:15:40.917Z,15.30
2023-05-08T11:18:11.902Z,15.20
2023-05-08T11:21:04.115Z,15.70
2023-05-08T11:23:36.776Z,16.20
2023-05-08T11:26:11.546Z,16.20
2023-05-08T11:28:57.924Z,16.50
2023-05-08T11:31:51.638Z,16.80
2023-05-08T11:34:44.233Z,17.00
2023-05-08T11:37:24.371Z,17.10
2023-05-08T11:39:51.896Z,17.80
2023-05-08T11:42:25.293Z,18.00
2023-05-08T11:45:07.794Z,17.80
2023-05-08T11:47:42.856Z,17.60
2023-05-08T11:50:14.102Z,16.50
2023-05-08T11:52:43.445Z,17.40
2023-05-08T11:55:13.951Z,18.10
2023-05-08T11:57:41.897Z,18.80
2023-05-08T12:00:13.463Z,18.70
2023-05-08T12:02:43.680Z,18.50
2023-05-08T12:05:11.837Z,18.40
2023-05-08T12:07:46.768Z,18.80
2023-05-08T12:10:16.673Z,19.00
2023-05-08T12:12:45.494Z,18.80
2023-05-08T12:15:16.077Z,18.80
2023-05-08T12:17:44.056Z,18.90
2023-05-08T12:20:13.739Z,19.30
2023-05-08T12:22:43.066Z,19.70
2023-05-08T12:25:14.726Z,19.40
2023-05-08T12:27:43.550Z,19.50
2023-05-08T12:30:15.237Z,20.00
2023-05-08T12:32:43.972Z,20.40
2023-05-08T12:35:13.515Z,20.80
2023-05-08T12:37:41.235Z,20.70
2023-05-08T12:40:26.327Z,19.30
2023-05-08T12:42:54.228Z,19.60
2023-05-08T12:45:24.858Z,19.30
2023-05-08T12:47:54.426Z,19.80
2023-05-08T12:50:22.667Z,20.00
2023-05-08T12:52:51.764Z,19.80
2023-05-08T12:55:30.189Z,19.10
2023-05-08T12:58:01.417Z,19.30
2023-05-08T13:00:49.841Z,20.30
2023-05-08T13:03:29.450Z,21.00
2023-05-08T13:05:58.813Z,21.40
2023-05-08T13:08:35.806Z,20.70
2023-05-08T13:11:05.776Z,21.00
2023-05-08T13:13:35.902Z,20.90
2023-05-08T13:16:07.996Z,20.30
2023-05-08T13:18:36.918Z,18.80
2023-05-08T13:21:04.508Z,18.90
2023-05-08T13:23:31.784Z,19.60
2023-05-08T13:25:59.153Z,19.60
2023-05-08T13:28:26.535Z,19.70
2023-05-08T13:30:53.817Z,20.50
2023-05-08T13:33:21.176Z,21.50
2023-05-08T13:35:48.607Z,21.60
2023-05-08T13:38:15.891Z,21.40
2023-05-08T13:40:43.197Z,22.00
2023-05-08T13:43:10.520Z,21.20
2023-05-08T13:45:37.855Z,21.80
2023-05-08T13:48:05.571Z,22.00
2023-05-08T13:50:32.938Z,22.00
2023-05-08T13:53:00.799Z,22.90
2023-05-08T13:55:28.103Z,22.30
2023-05-08T13:57:55.476Z,21.90
2023-05-08T14:00:26.001Z,21.70
2023-05-08T14:02:55.418Z,22.00
2023-05-08T14:05:22.781Z,21.10
2023-05-08T14:07:50.077Z,21.20
2023-05-08T14:10:17.412Z,21.20
2023-05-08T14:12:44.894Z,20.50
2023-05-08T14:15:12.620Z,19.90
2023-05-08T14:17:40.257Z,19.80
2023-05-08T14:20:10.289Z,20.80
2023-05-08T14:22:39.199Z,21.70
2023-05-08T14:25:08.063Z,22.90
2023-05-08T14:27:35.394Z,22.90
2023-05-08T14:30:02.834Z,23.00
2023-05-08T14:32:30.155Z,22.80
2023-05-08T14:34:57.495Z,22.50
2023-05-08T14:37:24.844Z,23.00
2023-05-08T14:39:54.274Z,23.50
2023-05-08T14:42:23.627Z,23.10
2023-05-08T14:44:52.729Z,22.30
2023-05-08T14:47:20.058Z,21.80
2023-05-08T14:49:47.859Z,21.50
2023-05-08T14:52:15.231Z,22.60
2023-05-08T14:54:42.812Z,23.70
2023-05-08T14:57:10.406Z,23.10
2023-05-08T14:59:39.818Z,23.20
2023-05-08T15:02:11.280Z,22.90
2023-05-08T15:04:41.651Z,23.50
2023-05-08T15:07:09.021Z,22.90
2023-05-08T15:09:36.470Z,22.00
2023-05-08T15:12:04.076Z,21.80
2023-05-08T15:14:31.577Z,21.20
2023-05-08T15:16:58.884Z,21.10
2023-05-08T15:19:26.197Z,21.70
2023-05-08T15:21:53.564Z,22.80
2023-05-08T15:24:20.878Z,22.90
2023-05-08T15:26:48.297Z,23.80
2023-05-08T15:29:15.574Z,24.10
2023-05-08T15:31:43.032Z,22.80
2023-05-08T15:34:10.335Z,21.60
2023-05-08T15:36:37.677Z,21.30
2023-05-08T15:39:05.071Z,21.10
2023-05-08T15:41:32.473Z,21.60
2023-05-08T15:46:27.199Z,21.60
2023-05-08T15:48:54.499Z,22.50
2023-05-08T15:51:22.034Z,22.80
2023-05-08T15:53:51.409Z,23.70
2023-05-08T15:56:24.601Z,24.40
2023-05-08T15:58:52.465Z,24.60
2023-05-08T16:01:22.948Z,24.20
2023-05-08T16:03:50.333Z,23.40
2023-05-08T16:06:17.632Z,22.80
2023-05-08T16:08:44.949Z,23.10
2023-05-08T16:11:12.323Z,23.80
2023-05-08T16:13:39.609Z,22.80
2023-05-08T16:16:07.256Z,22.60
2023-05-08T16:18:34.755Z,23.30
2023-05-08T16:21:02.132Z,23.60
2023-05-08T16:23:29.494Z,22.70
2023-05-08T16:25:56.955Z,22.10
2023-05-08T16:28:24.277Z,22.40
2023-05-08T16:30:51.537Z,22.20
2023-05-08T16:33:18.916Z,22.00
2023-05-08T16:35:46.236Z,21.40
2023-05-08T16:38:13.576Z,21.20
2023-05-08T16:40:41.954Z,20.70
2023-05-08T16:43:09.501Z,21.30
2023-05-08T16:45:36.834Z,21.60
2023-05-08T16:48:04.392Z,22.20
2023-05-08T16:50:31.920Z,21.20
2023-05-08T16:52:59.928Z,20.60
2023-05-08T16:55:27.483Z,20.80
2023-05-08T16:57:54.930Z,20.00
2023-05-08T17:00:23.082Z,19.80
2023-05-08T17:02:50.481Z,20.00
2023-05-08T17:05:17.989Z,19.30
2023-05-08T17:07:45.300Z,18.90
2023-05-08T17:10:12.931Z,19.10
2023-05-08T17:12:40.286Z,19.30
2023-05-08T17:15:08.368Z,19.30
2023-05-08T17:17:35.808Z,19.50
2023-05-08T17:20:03.490Z,18.50
2023-05-08T17:22:30.886Z,18.10
2023-05-08T17:24:58.260Z,18.40
2023-05-08T17:27:26.097Z,18.50
2023-05-08T17:29:56.108Z,18.40
2023-05-08T17:32:23.646Z,18.30
2023-05-08T17:34:51.199Z,17.90
2023-05-08T17:37:18.726Z,17.20
2023-05-08T17:39:46.212Z,16.90
2023-05-08T17:42:13.785Z,16.90
2023-05-08T17:44:41.299Z,17.00
2023-05-08T17:47:09.408Z,16.20
2023-05-08T17:49:36.952Z,15.60
2023-05-08T17:52:05.633Z,14.70
2023-05-08T17:54:33.141Z,13.80
2023-05-08T17:57:00.800Z,13.30
2023-05-08T17:59:28.248Z,12.70
2023-05-08T18:01:55.735Z,12.30
2023-05-08T18:04:23.238Z,12.00
2023-05-08T18:06:51.912Z,11.80
2023-05-08T18:09:19.465Z,11.50
2023-05-08T18:11:47.024Z,11.40
2023-05-08T18:14:14.532Z,11.20
2023-05-08T18:16:42.031Z,11.10
2023-05-08T18:19:09.578Z,11.00
2023-05-08T18:21:37.133Z,10.80
2023-05-08T18:24:05.127Z,10.60
2023-05-08T18:26:32.654Z,10.50
2023-05-08T18:29:00.165Z,10.30
2023-05-08T18:31:27.779Z,10.20
2023-05-08T18:33:55.415Z,10.10
2023-05-08T18:36:22.936Z,9.80
2023-05-08T18:38:50.432Z,9.70
2023-05-08T18:41:18.085Z,9.60
2023-05-08T18:43:45.688Z,9.40
2023-05-08T18:46:14.050Z,9.20
2023-05-08T18:48:41.987Z,9.20
2023-05-08T18:51:10.501Z,9.00
2023-05-08T18:53:39.126Z,9.00
2023-05-08T18:56:07.402Z,8.90
2023-05-08T18:58:35.396Z,8.80
2023-05-08T19:01:02.973Z,8.70
2023-05-08T19:03:30.853Z,8.60
2023-05-08T19:05:58.949Z,8.40
2023-05-08T19:08:26.516Z,8.30
2023-05-08T19:10:54.017Z,8.20
2023-05-08T19:13:21.554Z,8.10
2023-05-08T19:15:49.161Z,8.00
2023-05-08T19:18:18.208Z,7.90
2023-05-08T19:20:45.740Z,7.80
2023-05-08T19:23:13.249Z,7.70
2023-05-08T19:25:40.893Z,7.70
2023-05-08T19:28:08.373Z,7.60
2023-05-08T19:30:35.882Z,7.60
2023-05-08T19:33:03.392Z,7.50
2023-05-08T19:35:31.231Z,7.50
2023-05-08T19:37:58.807Z,7.40
2023-05-08T19:40:26.269Z,7.30
2023-05-08T19:42:54.928Z,7.20
2023-05-08T19:45:22.498Z,7.10
2023-05-08T19:47:50.112Z,7.00
2023-05-08T19:50:19.038Z,7.00
2023-05-08T19:52:48.872Z,7.00
2023-05-08T19:55:17.334Z,7.10
2023-05-08T19:57:45.112Z,7.20
2023-05-08T20:00:13.348Z,7.20
2023-05-08T20:02:41.091Z,7.30
2023-05-08T20:07:39.493Z,7.30
2023-05-08T20:10:08.036Z,7.30
2023-05-08T20:12:35.601Z,7.30
2023-05-08T20:15:03.202Z,7.20
2023-05-08T20:17:30.752Z,7.10
2023-05-08T20:19:58.337Z,7.10
2023-05-08T20:22:25.854Z,7.00
2023-05-08T20:24:53.357Z,6.90
2023-05-08T20:27:20.941Z,6.70
2023-05-08T20:29:48.792Z,6.70
2023-05-08T20:32:19.182Z,6.60
2023-05-08T20:34:46.792Z,6.50
2023-05-08T20:37:16.125Z,6.40
2023-05-08T20:39:43.993Z,6.40
2023-05-08T20:42:11.632Z,6.30
2023-05-08T20:44:39.221Z,6.20
2023-05-08T20:47:06.783Z,6.20
2023-05-08T20:49:34.277Z,6.10
2023-05-08T20:52:02.038Z,6.00
2023-05-08T20:54:32.762Z,5.90
2023-05-08T20:57:02.138Z,5.90
2023-05-08T20:59:29.700Z,5.90
2023-05-08T21:01:57.165Z,5.80
2023-05-08T21:04:24.714Z,5.80
2023-05-08T21:06:52.481Z,5.80
2023-05-08T21:09:20.128Z,5.80
2023-05-08T21:11:47.712Z,5.70
2023-05-08T21:14:15.171Z,5.70
2023-05-08T21:16:43.016Z,5.60
2023-05-08T21:19:14.013Z,5.60
2023-05-08T21:21:41.787Z,5.60
2023-05-08T21:24:09.271Z,5.60
2023-05-08T21:26:36.851Z,5.60
2023-05-08T21:29:04.718Z,5.60
2023-05-08T21:31:35.738Z,5.50
2023-05-08T21:34:04.202Z,5.50
2023-05-08T21:36:34.081Z,5.50
2023-05-08T21:39:03.045Z,5.40
2023-05-08T21:41:30.659Z,5.40
2023-05-08T21:43:58.147Z,5.30
2023-05-08T21:46:25.704Z,5.30
2023-05-08T21:48:53.239Z,5.30
2023-05-08T21:51:20.819Z,5.30
2023-05-08T21:53:48.368Z,5.20
2023-05-08T21:56:16.680Z,5.20
2023-05-08T21:58:44.129Z,5.20
2023-05-08T22:01:11.694Z,5.20
2023-05-08T22:03:39.344Z,5.20
2023-05-08T22:06:07.507Z,5.10
2023-05-08T22:08:35.325Z,5.00
2023-05-08T22:11:03.005Z,5.00
2023-05-08T22:13:30.812Z,5.00
2023-05-08T22:15:58.413Z,5.00
2023-05-08T22:18:26.227Z,5.00
2023-05-08T22:20:55.267Z,4.90
2023-05-08T22:23:22.770Z,4.90
2023-05-08T22:25:51.566Z,4.90
2023-05-08T22:28:19.058Z,4.90
2023-05-08T22:30:46.770Z,4.80
2023-05-08T22:33:14.327Z,4.80
2023-05-08T22:35:41.837Z,4.70
2023-05-08T22:38:09.356Z,4.70
2023-05-08T22:40:36.866Z,4.70
2023-05-08T22:43:04.575Z,4.70
2023-05-08T22:45:33.129Z,4.70
2023-05-08T22:48:01.114Z,4.60
2023-05-08T22:50:28.916Z,4.60
2023-05-08T22:52:56.547Z,4.60
2023-05-08T22:55:24.184Z,4.60
2023-05-08T22:57:51.751Z,4.60
2023-05-08T23:00:19.734Z,4.60
2023-05-08T23:02:47.222Z,4.50
2023-05-08T23:05:15.039Z,4.50
2023-05-08T23:07:42.669Z,4.50
2023-05-08T23:10:10.983Z,4.50
2023-05-08T23:12:38.438Z,4.50
2023-05-08T23:15:06.727Z,4.50
2023-05-08T23:17:34.323Z,4.50
2023-05-08T23:20:01.952Z,4.50
2023-05-08T23:22:29.545Z,4.50
2023-05-08T23:24:57.114Z,4.50
2023-05-08T23:27:25.716Z,4.50
2023-05-08T23:29:53.186Z,4.50
2023-05-08T23:32:20.701Z,4.50
2023-05-08T23:34:48.202Z,4.60
2023-05-08T23:37:15.826Z,4.60
2023-05-08T23:39:43.308Z,4.50
2023-05-08T23:42:10.824Z,4.50
2023-05-08T23:44:38.369Z,4.50
2023-05-08T23:47:06.275Z,4.50
2023-05-08T23:49:33.858Z,4.40
2023-05-08T23:52:01.380Z,4.30
2023-05-08T23:54:28.845Z,4.30
2023-05-08T23:56:56.583Z,4.20
2023-05-08T23:59:24.014Z,4.10
